Accueil
METAR-TAF:

METAR-TAF

Aéroports :

Curaçao, Antilles néerlandaises

Aéroport international de Curaçao

latitude: 12-12N, longitude: 068-58W, altitude: 9 m

Observation

Le bulletin a été fait il y a 46 minutes, à 09:00 UTC
Vent 14 kt de est
Température 26°C
Humidité 74%
Pression 1012 hPa
Quelques nuages à une hauteur de 1600 ft

METAR: TNCC 240900Z 10014KT FEW016 26/21 Q1012 NOSIG

Heure: 05:46 (09:46 UTC)

Prévision

Prévision valable du 23 à 22 UTC au 24 à 00 UTC
Vent 13 kt de est
Visibilité 10 km ou plus
Nuages épars à une hauteur de 2000 ft

TAF: TNCC 232200 2400/2424 10013KT 9999 SCT020

Observations et prévisions météorologiques de plus de 4000 aéroports (messages METAR et TAF).

Les stations disponibles sont représentées par des disques jaunes et rouges sur la carte.

Passer la souris dessus pour voir le nom de la station.

Cliquer dessus pour voir les observations et prévisions météorologiques.

Pour changer de carte: cliquez sur les boutons verts avec une croix noire pour zoomer, sur le bouton vert avec un tiret pour effectuer un zoom arrière, ou sur les flèches vertes pour les cartes adjacentes.


METAR-TAF: